Time;durP1;ratioP1;P1;durP2;ratioP2;P2;SDS_P1;SDS_P2;PMS_P1;PMS_P2;Temp;Humidity;BMP_temperature;BMP_pressure;BME280_temperature;BME280_humidity;BME280_pressure;Samples;Min_cycle;Max_cycle;Signal;HPM_P1;HPM_P2
2021/11/26 00:01:43;;;;;;;70.68;28.08;;;;;;;4.06;100.00;100387.09;5111797;27;20096;-78
2021/11/26 00:04:10;;;;;;;68.40;27.45;;;;;;;3.99;100.00;100388.78;5114835;28;20051;-77
2021/11/26 00:06:38;;;;;;;67.45;26.75;;;;;;;3.97;100.00;100385.34;5112974;28;20082;-78
2021/11/26 00:09:04;;;;;;;84.63;30.92;;;;;;;4.01;100.00;100379.34;5108765;28;20444;-78
2021/11/26 00:11:31;;;;;;;74.32;29.90;;;;;;;4.08;100.00;100375.09;5111592;28;20040;-78
2021/11/26 00:14:04;;;;;;;74.97;31.42;;;;;;;4.05;100.00;100367.34;5110781;28;20062;-78
2021/11/26 00:16:35;;;;;;;66.60;28.55;;;;;;;4.08;100.00;100363.91;5111528;28;20055;-78
2021/11/26 00:19:05;;;;;;;66.80;28.08;;;;;;;4.05;100.00;100367.34;5112427;28;20043;-78
2021/11/26 00:21:33;;;;;;;68.10;29.75;;;;;;;4.00;100.00;100359.63;5111292;28;20040;-78
2021/11/26 00:23:59;;;;;;;69.15;30.27;;;;;;;4.04;100.00;100356.19;5107190;28;20055;-77
2021/11/26 00:26:25;;;;;;;81.25;32.78;;;;;;;4.05;100.00;100355.31;5110800;28;20050;-78
2021/11/26 00:28:52;;;;;;;81.05;34.75;;;;;;;4.04;100.00;100345.03;5111394;28;20040;-78
2021/11/26 00:31:18;;;;;;;85.55;36.78;;;;;;;4.02;100.00;100342.47;5113841;28;20160;-78
2021/11/26 00:33:45;;;;;;;96.68;36.38;;;;;;;4.02;100.00;100337.31;5113056;28;20113;-79
2021/11/26 00:36:13;;;;;;;88.45;35.95;;;;;;;4.04;100.00;100333.00;5111188;28;20036;-79
2021/11/26 00:38:39;;;;;;;90.78;35.88;;;;;;;4.05;100.00;100329.59;5110205;28;20070;-79
2021/11/26 00:41:06;;;;;;;87.82;35.90;;;;;;;4.03;100.00;100335.59;5109783;28;20044;-78
2021/11/26 00:43:33;;;;;;;99.85;37.70;;;;;;;4.04;100.00;100319.28;5114270;28;20058;-79
2021/11/26 00:45:59;;;;;;;96.88;38.47;;;;;;;3.99;100.00;100321.88;5115169;28;20426;-78
2021/11/26 00:48:26;;;;;;;91.22;35.85;;;;;;;3.88;100.00;100316.72;5114387;28;20096;-78
2021/11/26 00:50:53;;;;;;;86.28;35.05;;;;;;;4.00;100.00;100310.72;5107969;28;20524;-78
2021/11/26 00:53:20;;;;;;;92.28;36.92;;;;;;;3.97;100.00;100307.28;5109978;28;20077;-79
2021/11/26 00:55:47;;;;;;;82.63;34.83;;;;;;;3.93;100.00;100303.00;5109558;28;20043;-79
2021/11/26 00:58:14;;;;;;;89.15;37.58;;;;;;;3.83;100.00;100304.72;5112730;28;20043;-79
2021/11/26 01:00:40;;;;;;;90.22;37.08;;;;;;;3.85;100.00;100298.69;5115607;28;20044;-79
2021/11/26 01:03:07;;;;;;;83.80;36.40;;;;;;;3.84;100.00;100291.84;5109850;28;20051;-79
2021/11/26 01:05:34;;;;;;;90.15;35.50;;;;;;;3.88;100.00;100288.41;5113092;28;20050;-79
2021/11/26 01:08:01;;;;;;;85.13;33.90;;;;;;;3.87;100.00;100280.69;5110143;28;20051;-78
2021/11/26 01:10:29;;;;;;;84.85;34.17;;;;;;;3.89;100.00;100277.25;5114470;28;20059;-78
2021/11/26 01:12:56;;;;;;;77.47;31.90;;;;;;;3.80;100.00;100271.25;5114926;28;20079;-78
2021/11/26 01:15:26;;;;;;;71.00;31.02;;;;;;;3.83;100.00;100271.25;5111886;28;20417;-78
2021/11/26 01:17:53;;;;;;;73.75;30.90;;;;;;;3.88;100.00;100264.38;5110126;28;20043;-79
2021/11/26 01:20:22;;;;;;;75.80;31.60;;;;;;;3.82;100.00;100266.97;5113167;28;20468;-79
2021/11/26 01:22:49;;;;;;;72.60;31.13;;;;;;;3.85;100.00;100269.53;5111920;28;20051;-78
2021/11/26 01:25:16;;;;;;;64.60;28.27;;;;;;;3.79;100.00;100260.13;5111906;28;20051;-78
2021/11/26 01:27:44;;;;;;;68.30;28.40;;;;;;;3.81;100.00;100249.81;5110629;28;20048;-78
2021/11/26 01:30:20;;;;;;;61.58;28.05;;;;;;;3.74;100.00;100246.38;5110847;28;20055;-77
2021/11/26 01:32:47;;;;;;;67.65;28.30;;;;;;;3.69;100.00;100243.81;5107853;28;20056;-78
2021/11/26 01:35:13;;;;;;;65.75;27.08;;;;;;;3.70;100.00;100245.50;5108484;28;20084;-78
2021/11/26 01:37:40;;;;;;;67.65;29.25;;;;;;;3.68;100.00;100241.22;5110163;28;20047;-78
2021/11/26 01:40:08;;;;;;;65.10;27.90;;;;;;;3.65;100.00;100233.50;5111027;28;20035;-78
2021/11/26 01:42:35;;;;;;;62.58;26.02;;;;;;;3.66;100.00;100232.66;5113982;28;20047;-78
2021/11/26 01:45:03;;;;;;;67.70;26.40;;;;;;;3.63;100.00;100225.81;5108527;28;20405;-78
2021/11/26 01:47:30;;;;;;;57.95;25.00;;;;;;;3.62;100.00;100231.78;5110398;28;20047;-78
2021/11/26 01:49:57;;;;;;;63.30;26.48;;;;;;;3.57;100.00;100223.19;5109535;28;20490;-78
2021/11/26 01:52:23;;;;;;;63.53;26.52;;;;;;;3.62;100.00;100215.50;5106804;28;20528;-78
2021/11/26 01:54:50;;;;;;;54.67;24.75;;;;;;;3.56;100.00;100221.47;5107408;28;20040;-78
2021/11/26 01:57:17;;;;;;;53.90;24.20;;;;;;;3.53;100.00;100211.22;5108403;28;20052;-77
2021/11/26 01:59:44;;;;;;;48.88;21.48;;;;;;;3.52;100.00;100212.06;5111196;28;20104;-78
2021/11/26 02:02:11;;;;;;;57.92;26.00;;;;;;;3.45;100.00;100198.34;5112044;28;20051;-78
2021/11/26 02:04:38;;;;;;;53.83;23.13;;;;;;;3.47;100.00;100196.63;5109502;28;20040;-77
2021/11/26 02:07:04;;;;;;;57.63;25.08;;;;;;;3.45;100.00;100189.75;5111822;28;20047;-78
2021/11/26 02:09:31;;;;;;;54.85;23.58;;;;;;;3.51;100.00;100193.19;5112336;28;20055;-78
2021/11/26 02:11:57;;;;;;;51.47;22.92;;;;;;;3.51;100.00;100182.06;5110515;28;20502;-79
2021/11/26 02:14:25;;;;;;;54.13;24.90;;;;;;;3.48;100.00;100175.22;5104506;28;20054;-79
2021/11/26 02:16:52;;;;;;;49.72;22.35;;;;;;;3.46;100.00;100173.47;5111152;28;20050;-78
2021/11/26 02:19:23;;;;;;;49.58;21.95;;;;;;;3.45;100.00;100166.63;5097155;28;20410;-78
2021/11/26 02:21:52;;;;;;;48.60;22.35;;;;;;;3.44;100.00;100163.19;5110134;28;20051;-77
2021/11/26 02:24:19;;;;;;;48.05;21.80;;;;;;;3.40;100.00;100152.06;5098792;28;20043;-77
2021/11/26 02:26:48;;;;;;;55.15;22.60;;;;;;;3.41;100.00;100160.63;5111231;28;20062;-77
2021/11/26 02:29:16;;;;;;;49.50;23.30;;;;;;;3.35;100.00;100145.19;5112608;28;20043;-79
2021/11/26 02:31:43;;;;;;;52.25;23.25;;;;;;;3.38;100.00;100140.91;5111585;28;20052;-77
2021/11/26 02:34:10;;;;;;;47.20;22.55;;;;;;;3.32;100.00;100138.34;5121606;28;20047;-78
2021/11/26 02:36:37;;;;;;;54.35;23.83;;;;;;;3.31;100.00;100131.50;5118528;28;20066;-78
2021/11/26 02:39:08;;;;;;;45.78;21.55;;;;;;;3.37;100.00;100126.34;5116711;28;20061;-79
2021/11/26 02:41:35;;;;;;;56.05;22.77;;;;;;;3.34;100.00;100118.66;5113764;28;20043;-77
2021/11/26 02:44:02;;;;;;;55.40;23.38;;;;;;;3.37;100.00;100113.50;5113982;28;20480;-77
2021/11/26 02:46:28;;;;;;;54.08;23.75;;;;;;;3.33;100.00;100101.50;5111256;28;20042;-78
2021/11/26 02:48:55;;;;;;;55.90;24.58;;;;;;;3.34;100.00;100099.78;5113631;28;20440;-77
2021/11/26 02:51:21;;;;;;;56.13;25.00;;;;;;;3.28;100.00;100092.94;5113396;28;20058;-77
2021/11/26 02:53:48;;;;;;;49.97;25.42;;;;;;;3.31;100.00;100092.06;5112451;28;20100;-77
2021/11/26 02:56:16;;;;;;;53.33;23.50;;;;;;;3.31;100.00;100092.94;5113459;28;20055;-79
2021/11/26 02:58:42;;;;;;;53.00;25.98;;;;;;;3.27;100.00;100078.34;5112660;28;20414;-79
2021/11/26 03:01:08;;;;;;;47.45;22.83;;;;;;;3.32;100.00;100080.94;5117587;28;20047;-78
2021/11/26 03:03:35;;;;;;;55.13;26.27;;;;;;;3.37;100.00;100085.22;5111296;28;20079;-78
2021/11/26 03:06:05;;;;;;;55.00;23.23;;;;;;;3.41;100.00;100076.66;5108571;28;20670;-78
2021/11/26 03:08:32;;;;;;;47.85;23.13;;;;;;;3.39;100.00;100077.53;5111005;28;20051;-77
2021/11/26 03:11:01;;;;;;;53.10;24.60;;;;;;;3.33;100.00;100080.94;5109180;28;20043;-78
2021/11/26 03:13:29;;;;;;;48.33;22.67;;;;;;;3.36;100.00;100070.63;5114689;28;20052;-78
2021/11/26 03:15:55;;;;;;;49.08;23.58;;;;;;;3.36;100.00;100068.06;5115946;28;20051;-77
2021/11/26 03:18:24;;;;;;;47.85;24.08;;;;;;;3.37;100.00;100066.38;5109365;28;20044;-78
2021/11/26 03:20:51;;;;;;;49.72;22.25;;;;;;;3.37;100.00;100059.50;5115293;28;20137;-77
2021/11/26 03:23:20;;;;;;;45.50;21.45;;;;;;;3.33;100.00;100050.09;5115265;28;20456;-78
2021/11/26 03:25:46;;;;;;;47.47;22.13;;;;;;;3.34;100.00;100046.69;5114426;28;20059;-78
2021/11/26 03:28:15;;;;;;;41.40;21.23;;;;;;;3.36;100.00;100050.06;5112298;28;20048;-78
2021/11/26 03:30:43;;;;;;;46.78;21.80;;;;;;;3.40;100.00;100050.94;5116135;28;20048;-78
2021/11/26 03:33:11;;;;;;;48.20;20.77;;;;;;;3.37;100.00;100051.78;5115846;28;20062;-77
2021/11/26 03:35:38;;;;;;;42.28;20.33;;;;;;;3.36;100.00;100041.53;5118954;28;20115;-77
2021/11/26 03:38:04;;;;;;;43.85;20.83;;;;;;;3.34;100.00;100033.81;5116540;28;20506;-77
2021/11/26 03:40:31;;;;;;;46.33;21.05;;;;;;;3.35;100.00;100022.66;5112693;28;20063;-77
2021/11/26 03:42:58;;;;;;;40.13;20.10;;;;;;;3.36;100.00;100023.53;5113311;28;20050;-77
2021/11/26 03:45:27;;;;;;;41.08;19.45;;;;;;;3.37;100.00;100014.97;5106836;28;20044;-78
2021/11/26 03:47:56;;;;;;;43.42;19.90;;;;;;;3.35;100.00;100017.50;5112280;28;20039;-77
2021/11/26 03:50:23;;;;;;;35.40;18.70;;;;;;;3.41;100.00;100007.25;5114887;28;20410;-78
2021/11/26 03:52:50;;;;;;;35.67;19.70;;;;;;;3.47;100.00;100001.22;5112738;28;20059;-78
2021/11/26 03:55:19;;;;;;;39.20;17.98;;;;;;;3.52;100.00;99998.66;5113149;28;20403;-77
2021/11/26 03:57:46;;;;;;;42.08;18.55;;;;;;;3.51;100.00;99997.78;5111058;28;20129;-78
2021/11/26 04:00:13;;;;;;;33.70;16.20;;;;;;;3.55;100.00;99990.91;5106494;28;20567;-77
2021/11/26 04:02:41;;;;;;;34.67;16.00;;;;;;;3.51;100.00;99979.78;5111240;28;20040;-78
2021/11/26 04:05:09;;;;;;;27.83;15.55;;;;;;;3.58;100.00;99978.06;5113387;28;20054;-78
2021/11/26 04:07:36;;;;;;;29.65;14.27;;;;;;;3.53;100.00;99972.91;5114779;28;20058;-78
2021/11/26 04:10:04;;;;;;;33.25;16.45;;;;;;;3.51;100.00;99973.78;5109375;28;20043;-78
2021/11/26 04:12:30;;;;;;;36.30;16.33;;;;;;;3.51;100.00;99956.63;5113060;28;20044;-78
2021/11/26 04:14:57;;;;;;;30.95;15.68;;;;;;;3.48;100.00;99948.97;5112846;28;20043;-78
2021/11/26 04:17:24;;;;;;;29.45;15.40;;;;;;;3.44;100.00;99946.41;5107259;28;20097;-78
2021/11/26 04:19:50;;;;;;;35.35;16.48;;;;;;;3.46;100.00;99942.97;5114548;28;20051;-78
2021/11/26 04:22:18;;;;;;;32.38;16.48;;;;;;;3.45;100.00;99943.81;5115544;28;20051;-78
2021/11/26 04:24:45;;;;;;;35.95;17.30;;;;;;;3.49;100.00;99942.09;5111680;28;20051;-78
2021/11/26 04:27:11;;;;;;;35.17;15.80;;;;;;;3.45;100.00;99932.66;5113779;28;20043;-78
2021/11/26 04:29:38;;;;;;;35.15;16.55;;;;;;;3.48;100.00;99919.81;5109701;28;20052;-77
2021/11/26 04:32:05;;;;;;;24.95;13.95;;;;;;;3.52;100.00;99924.09;5117564;28;20059;-77
2021/11/26 04:34:32;;;;;;;28.30;15.45;;;;;;;3.53;100.00;99918.09;5116908;28;20506;-78
2021/11/26 04:36:59;;;;;;;28.88;14.77;;;;;;;3.57;100.00;99904.34;5118963;27;20036;-77
2021/11/26 04:39:27;;;;;;;27.70;15.48;;;;;;;3.56;100.00;99897.47;5109006;27;20048;-77
2021/11/26 04:41:53;;;;;;;32.78;14.18;;;;;;;3.61;100.00;99897.47;5111103;27;20052;-78
2021/11/26 04:44:20;;;;;;;32.85;16.10;;;;;;;3.60;100.00;99894.06;5107690;28;20057;-79
2021/11/26 04:46:46;;;;;;;32.53;15.80;;;;;;;3.60;100.00;99894.06;5111237;28;20040;-78
2021/11/26 04:49:12;;;;;;;30.50;15.40;;;;;;;3.63;100.00;99888.03;5112452;28;20046;-78
2021/11/26 04:51:39;;;;;;;34.55;15.68;;;;;;;3.60;100.00;99883.75;5107600;28;20044;-78
2021/11/26 04:54:05;;;;;;;26.17;15.18;;;;;;;3.61;100.00;99882.91;5108112;28;20055;-78
2021/11/26 04:56:33;;;;;;;24.60;15.52;;;;;;;3.63;100.00;99877.75;5109785;28;20043;-78
2021/11/26 04:59:00;;;;;;;27.42;16.58;;;;;;;3.62;100.00;99870.88;5112329;28;20051;-78
2021/11/26 05:01:27;;;;;;;32.47;16.23;;;;;;;3.66;100.00;99867.44;5110411;28;20040;-79
2021/11/26 05:03:53;;;;;;;27.90;15.98;;;;;;;3.63;100.00;99868.34;5112183;28;20063;-79
2021/11/26 05:06:20;;;;;;;30.13;17.02;;;;;;;3.63;100.00;99868.34;5111428;28;20047;-78
2021/11/26 05:08:47;;;;;;;32.72;16.30;;;;;;;3.58;100.00;99862.34;5109363;28;20056;-79
2021/11/26 05:11:13;;;;;;;27.33;16.17;;;;;;;3.62;100.00;99850.31;5107306;28;21466;-78
2021/11/26 05:13:43;;;;;;;27.50;17.02;;;;;;;3.61;100.00;99859.75;5106527;28;20063;-79
2021/11/26 05:16:13;;;;;;;32.97;17.23;;;;;;;3.63;100.00;99852.91;5111834;28;20134;-78
2021/11/26 05:18:39;;;;;;;32.13;16.83;;;;;;;3.62;100.00;99850.31;5110830;28;20050;-80
2021/11/26 05:21:06;;;;;;;34.40;17.40;;;;;;;3.58;100.00;99850.34;5107379;28;20040;-79
2021/11/26 05:23:32;;;;;;;29.05;17.52;;;;;;;3.62;100.00;99837.47;5102039;28;20060;-78
2021/11/26 05:25:59;;;;;;;27.60;17.42;;;;;;;3.58;100.00;99841.78;5109181;28;20044;-79
2021/11/26 05:28:26;;;;;;;31.42;17.50;;;;;;;3.63;100.00;99837.47;5109725;28;20048;-78
2021/11/26 05:30:54;;;;;;;33.63;17.55;;;;;;;3.62;100.00;99833.19;5116828;28;20063;-77
2021/11/26 05:33:20;;;;;;;25.63;16.83;;;;;;;3.65;100.00;99838.28;5112809;28;20046;-79
2021/11/26 05:35:47;;;;;;;29.60;16.63;;;;;;;3.64;100.00;99843.47;5114098;27;20063;-79
2021/11/26 05:38:14;;;;;;;34.28;17.23;;;;;;;3.67;100.00;99828.84;5111789;28;20043;-79
2021/11/26 05:40:42;;;;;;;28.65;17.70;;;;;;;3.64;100.00;99823.75;5113582;28;20109;-79
2021/11/26 05:43:09;;;;;;;31.73;17.90;;;;;;;3.66;100.00;99821.16;5110799;28;20056;-79
2021/11/26 05:45:35;;;;;;;35.25;18.13;;;;;;;3.61;100.00;99820.31;5107679;28;20050;-78
2021/11/26 05:48:03;;;;;;;35.95;17.92;;;;;;;3.57;100.00;99817.78;5110739;28;20426;-79
2021/11/26 05:50:29;;;;;;;32.55;17.80;;;;;;;3.63;100.00;99810.88;5108455;28;20044;-78
2021/11/26 05:52:56;;;;;;;42.40;19.08;;;;;;;3.60;100.00;99808.31;5105980;28;20051;-78
2021/11/26 05:55:26;;;;;;;29.33;18.20;;;;;;;3.64;100.00;99813.47;5109538;28;20050;-78
2021/11/26 05:57:53;;;;;;;28.40;17.77;;;;;;;3.69;100.00;99806.56;5113302;28;20051;-78
2021/11/26 06:00:21;;;;;;;31.75;17.83;;;;;;;3.71;100.00;99804.84;5115172;28;20059;-78
2021/11/26 06:02:49;;;;;;;32.83;18.23;;;;;;;3.72;100.00;99796.28;5106036;28;20503;-78
2021/11/26 06:05:17;;;;;;;30.38;18.00;;;;;;;3.82;100.00;99796.22;5111792;28;20047;-79
2021/11/26 06:07:44;;;;;;;35.17;18.33;;;;;;;3.79;100.00;99796.22;5115375;28;20054;-79
2021/11/26 06:10:13;;;;;;;30.65;18.85;;;;;;;3.79;100.00;99791.06;5114079;28;20040;-78
2021/11/26 06:12:40;;;;;;;34.70;19.20;;;;;;;3.70;100.00;99789.41;5116176;28;20074;-79
2021/11/26 06:15:08;;;;;;;35.97;18.50;;;;;;;3.79;100.00;99781.66;5119320;28;20047;-78
2021/11/26 06:17:35;;;;;;;35.22;19.27;;;;;;;3.76;100.00;99776.53;5112536;28;20051;-78
2021/11/26 06:20:02;;;;;;;36.97;19.25;;;;;;;3.63;100.00;99777.47;5112860;28;20040;-79
2021/11/26 06:22:29;;;;;;;34.38;19.88;;;;;;;3.72;100.00;99773.13;5115794;28;20044;-80
2021/11/26 06:24:56;;;;;;;42.50;21.35;;;;;;;3.64;100.00;99762.03;5112843;28;20039;-79
2021/11/26 06:27:23;;;;;;;41.22;21.63;;;;;;;3.63;100.00;99756.88;5113775;28;20489;-79
2021/11/26 06:29:49;;;;;;;40.42;21.05;;;;;;;3.70;100.00;99761.13;5113560;28;20048;-78
2021/11/26 06:32:16;;;;;;;41.42;22.33;;;;;;;3.72;100.00;99749.09;5111915;28;20047;-78
2021/11/26 06:34:42;;;;;;;42.40;22.92;;;;;;;3.80;100.00;99743.91;5113815;28;20417;-79
2021/11/26 06:37:09;;;;;;;48.50;24.67;;;;;;;3.77;100.00;99731.94;5119016;28;20039;-80
2021/11/26 06:39:37;;;;;;;44.53;23.70;;;;;;;3.80;100.00;99742.19;5118182;28;20505;-79
2021/11/26 06:42:03;;;;;;;49.63;24.25;;;;;;;3.81;100.00;99732.75;5112570;28;20051;-79
2021/11/26 06:44:30;;;;;;;47.28;24.08;;;;;;;3.82;100.00;99729.31;5115004;28;20055;-80
2021/11/26 06:46:57;;;;;;;46.08;24.60;;;;;;;3.85;100.00;99727.56;5117171;28;20044;-79
2021/11/26 06:49:23;;;;;;;44.35;24.00;;;;;;;3.86;100.00;99721.56;5119160;28;20048;-79
2021/11/26 06:51:49;;;;;;;45.10;23.42;;;;;;;3.85;100.00;99716.41;5116134;28;20048;-79
2021/11/26 06:54:16;;;;;;;38.80;23.65;;;;;;;3.88;100.00;99712.13;5114601;28;20048;-80
2021/11/26 06:56:44;;;;;;;45.83;24.10;;;;;;;3.93;100.00;99712.09;5115322;28;20070;-78
2021/11/26 06:59:10;;;;;;;45.10;23.60;;;;;;;3.85;100.00;99707.00;5115985;28;20077;-78
2021/11/26 07:01:37;;;;;;;46.40;24.25;;;;;;;3.88;100.00;99714.69;5109787;28;20063;-78
2021/11/26 07:04:05;;;;;;;46.08;24.15;;;;;;;3.92;100.00;99702.66;5115418;27;20090;-80
2021/11/26 07:06:31;;;;;;;41.03;23.92;;;;;;;3.95;100.00;99697.47;5112125;28;20040;-80
2021/11/26 07:08:58;;;;;;;40.97;23.33;;;;;;;3.98;100.00;99688.88;5117447;27;20119;-80
2021/11/26 07:11:24;;;;;;;42.65;24.05;;;;;;;3.94;100.00;99690.63;5118876;27;20051;-80
2021/11/26 07:13:52;;;;;;;49.67;25.08;;;;;;;4.01;100.00;99689.72;5116391;27;20040;-79
2021/11/26 07:16:19;;;;;;;42.42;24.23;;;;;;;4.03;100.00;99684.53;5114187;27;20124;-79
2021/11/26 07:18:45;;;;;;;38.65;22.55;;;;;;;4.03;100.00;99677.69;5115652;27;20051;-78
2021/11/26 07:21:12;;;;;;;35.83;22.50;;;;;;;4.02;100.00;99675.97;5113755;27;20048;-78
2021/11/26 07:23:39;;;;;;;40.13;22.67;;;;;;;4.01;100.00;99676.84;5114353;27;20082;-79
2021/11/26 07:26:06;;;;;;;42.92;22.80;;;;;;;3.93;100.00;99678.66;5111325;27;20044;-78
2021/11/26 07:28:33;;;;;;;45.33;22.10;;;;;;;3.94;100.00;99675.22;5120565;27;20047;-79
2021/11/26 07:31:00;;;;;;;37.72;20.42;;;;;;;3.96;100.00;99663.16;5113609;27;20059;-78
2021/11/26 07:33:27;;;;;;;39.15;21.02;;;;;;;3.96;100.00;99668.31;5115675;27;20395;-79
2021/11/26 07:35:53;;;;;;;37.90;19.48;;;;;;;4.03;100.00;99677.69;5108759;27;20054;-76
2021/11/26 07:38:20;;;;;;;39.25;20.48;;;;;;;3.97;100.00;99666.59;5108103;27;20052;-77
2021/11/26 07:40:49;;;;;;;36.72;18.63;;;;;;;4.05;100.00;99663.06;5111498;27;20047;-77
2021/11/26 07:43:16;;;;;;;32.20;16.95;;;;;;;3.99;100.00;99664.88;5103136;27;20134;-77
2021/11/26 07:45:42;;;;;;;41.47;18.13;;;;;;;4.02;100.00;99655.41;5114629;27;20133;-78
2021/11/26 07:48:10;;;;;;;34.13;18.17;;;;;;;3.95;100.00;99653.72;5109581;27;20131;-77
2021/11/26 07:50:37;;;;;;;35.20;17.42;;;;;;;3.99;100.00;99650.28;5115518;27;20082;-78
2021/11/26 07:53:03;;;;;;;29.63;17.13;;;;;;;4.01;100.00;99648.53;5105055;27;21097;-77
2021/11/26 07:55:30;;;;;;;31.95;16.30;;;;;;;4.03;100.00;99641.66;5103253;27;20050;-77
2021/11/26 07:57:56;;;;;;;30.20;15.98;;;;;;;4.09;100.00;99637.31;5113979;27;20046;-79
2021/11/26 08:00:23;;;;;;;31.02;14.55;;;;;;;4.11;100.00;99638.16;5104373;27;20398;-80
2021/11/26 08:02:49;;;;;;;31.60;15.73;;;;;;;4.05;100.00;99631.34;5113793;27;20418;-77
2021/11/26 08:05:18;;;;;;;33.65;16.35;;;;;;;3.95;100.00;99628.00;5103595;27;20935;-75
2021/11/26 08:07:44;;;;;;;24.17;14.55;;;;;;;4.07;100.00;99621.03;5103688;27;20047;-78
2021/11/26 08:10:12;;;;;;;33.45;15.18;;;;;;;4.03;100.00;99623.66;5101387;27;20427;-74
2021/11/26 08:12:39;;;;;;;29.50;14.95;;;;;;;4.09;100.00;99615.03;5104931;27;20067;-76
2021/11/26 08:15:08;;;;;;;28.05;14.20;;;;;;;4.05;100.00;99613.34;5121987;27;20051;-75
2021/11/26 08:17:34;;;;;;;33.67;14.32;;;;;;;4.11;100.00;99599.56;5113804;27;20047;-74
2021/11/26 08:20:03;;;;;;;31.85;14.63;;;;;;;4.17;100.00;99602.03;5111008;27;20100;-74
2021/11/26 08:22:31;;;;;;;30.42;14.80;;;;;;;4.05;100.00;99596.16;5109559;27;20055;-74
2021/11/26 08:24:57;;;;;;;32.40;15.18;;;;;;;4.17;100.00;99591.75;5109090;27;20077;-76
2021/11/26 08:27:24;;;;;;;36.40;16.67;;;;;;;4.60;100.00;99585.22;5111099;27;20043;-75
2021/11/26 08:29:50;;;;;;;34.53;14.45;;;;;;;4.55;100.00;99577.53;5108412;27;20076;-76
2021/11/26 08:32:17;;;;;;;26.27;13.90;;;;;;;4.55;100.00;99574.13;5118084;27;20047;-73
2021/11/26 08:34:43;;;;;;;33.30;14.65;;;;;;;4.69;100.00;99573.94;5104095;27;20047;-75
2021/11/26 08:37:09;;;;;;;32.17;14.38;;;;;;;4.73;100.00;99565.31;5109446;27;20043;-76
2021/11/26 08:39:37;;;;;;;28.70;12.95;;;;;;;4.70;100.00;99562.78;5110014;27;20039;-75
2021/11/26 08:42:04;;;;;;;32.08;13.73;;;;;;;4.58;100.00;99559.50;5111759;27;20124;-73
2021/11/26 08:44:32;;;;;;;28.02;13.05;;;;;;;4.71;100.00;99554.16;5110932;27;20545;-73
2021/11/26 08:46:58;;;;;;;34.72;13.45;;;;;;;4.63;100.00;99549.13;5111567;27;20117;-73
2021/11/26 08:49:25;;;;;;;32.72;13.13;;;;;;;4.62;100.00;99547.41;5116113;27;20107;-74
2021/11/26 08:51:54;;;;;;;31.65;13.98;;;;;;;4.63;100.00;99542.25;5108408;27;20047;-74
2021/11/26 08:54:24;;;;;;;31.20;14.07;;;;;;;4.69;100.00;99540.47;5118617;27;20043;-74
2021/11/26 08:56:54;;;;;;;26.73;12.57;;;;;;;4.74;100.00;99536.09;5115870;27;20047;-74
2021/11/26 08:59:21;;;;;;;31.25;12.13;;;;;;;4.74;100.00;99533.53;5107173;27;20057;-73
2021/11/26 09:01:48;;;;;;;25.05;10.93;;;;;;;4.87;100.00;99526.47;5102349;27;20039;-74
2021/11/26 09:04:15;;;;;;;22.80;10.60;;;;;;;4.81;100.00;99532.56;5107577;27;20444;-74
2021/11/26 09:06:41;;;;;;;25.83;11.38;;;;;;;4.70;100.00;99526.72;5110393;28;20048;-74
2021/11/26 09:09:08;;;;;;;47.83;12.98;;;;;;;4.66;100.00;99529.31;5101915;27;20796;-75
2021/11/26 09:11:34;;;;;;;23.27;9.45;;;;;;;4.72;100.00;99512.91;5104226;27;20420;-74
2021/11/26 09:14:05;;;;;;;30.02;10.07;;;;;;;4.63;100.00;99516.50;5102025;27;20047;-74
2021/11/26 09:16:31;;;;;;;22.92;9.00;;;;;;;4.70;100.00;99508.69;5109417;27;20097;-74
2021/11/26 09:18:58;;;;;;;18.42;7.93;;;;;;;4.54;100.00;99518.34;5109055;27;20043;-74
2021/11/26 09:21:24;;;;;;;19.58;8.70;;;;;;;4.41;100.00;99517.69;5105314;27;20058;-74
2021/11/26 09:23:51;;;;;;;22.77;8.77;;;;;;;4.46;100.00;99521.88;5104645;27;20055;-72
2021/11/26 09:26:17;;;;;;;21.58;7.88;;;;;;;4.48;100.00;99511.56;5103845;27;20092;-74
2021/11/26 09:28:44;;;;;;;20.80;8.02;;;;;;;4.45;99.94;99506.44;5103704;27;20055;-73
2021/11/26 09:31:12;;;;;;;18.17;9.38;;;;;;;4.39;100.00;99514.25;5101076;28;20074;-75
2021/11/26 09:33:38;;;;;;;23.27;8.00;;;;;;;4.34;100.00;99504.88;5102439;27;20051;-74
2021/11/26 09:36:06;;;;;;;27.33;9.63;;;;;;;4.29;100.00;99504.09;5118389;27;20055;-75
2021/11/26 09:38:33;;;;;;;24.23;9.13;;;;;;;4.28;100.00;99488.69;5111918;27;20046;-73
2021/11/26 09:41:00;;;;;;;19.95;9.00;;;;;;;4.28;100.00;99480.97;5100189;28;20048;-74
2021/11/26 09:43:27;;;;;;;24.08;8.32;;;;;;;4.29;100.00;99485.25;5110795;27;20058;-75
2021/11/26 09:45:54;;;;;;;21.73;9.00;;;;;;;4.39;99.85;99483.38;5102088;28;20056;-76
2021/11/26 09:48:22;;;;;;;23.70;9.15;;;;;;;4.39;99.91;99484.25;5109137;28;20048;-73
2021/11/26 09:50:48;;;;;;;25.73;9.27;;;;;;;4.50;99.08;99484.06;5109052;28;20070;-74
2021/11/26 09:53:20;;;;;;;23.80;10.27;;;;;;;4.47;100.00;99477.25;5103852;28;20086;-73
2021/11/26 09:55:49;;;;;;;27.95;9.93;;;;;;;4.49;98.46;99464.34;5105814;28;20071;-74
2021/11/26 09:58:16;;;;;;;28.58;10.85;;;;;;;4.47;98.68;99455.78;5113881;28;20112;-74
2021/11/26 10:00:45;;;;;;;25.52;10.77;;;;;;;4.55;100.00;99453.09;5105970;28;20055;-73
2021/11/26 10:03:12;;;;;;;24.00;10.73;;;;;;;4.51;98.92;99447.16;5104940;28;20048;-74
2021/11/26 10:05:41;;;;;;;20.33;10.05;;;;;;;4.59;99.05;99447.88;5112595;28;20043;-74
2021/11/26 10:08:08;;;;;;;26.23;11.70;;;;;;;4.53;98.42;99441.97;5107514;28;20118;-74
2021/11/26 10:10:39;;;;;;;27.05;11.85;;;;;;;4.54;98.02;99429.09;5099629;28;20051;-74
2021/11/26 10:13:09;;;;;;;22.92;11.93;;;;;;;4.75;98.58;99424.44;5105204;28;20509;-75
2021/11/26 10:15:38;;;;;;;30.13;11.75;;;;;;;4.79;96.71;99413.22;5111383;28;20070;-74
2021/11/26 10:18:07;;;;;;;26.83;12.70;;;;;;;4.75;97.32;99407.28;5109138;28;20048;-73
2021/11/26 10:20:34;;;;;;;27.65;12.95;;;;;;;4.86;95.80;99401.91;5106555;28;20054;-74
2021/11/26 10:23:04;;;;;;;33.10;13.95;;;;;;;4.78;94.98;99396.94;5109911;27;20066;-75
2021/11/26 10:25:31;;;;;;;30.38;14.52;;;;;;;4.73;94.51;99395.31;5114996;28;20047;-74
2021/11/26 10:28:02;;;;;;;33.78;13.52;;;;;;;4.75;96.23;99384.09;5113910;28;20039;-73
2021/11/26 10:30:32;;;;;;;28.67;14.32;;;;;;;4.72;94.77;99375.56;5120935;28;20055;-71
2021/11/26 10:33:01;;;;;;;35.08;15.25;;;;;;;4.75;94.83;99367.75;5104033;28;20059;-71
2021/11/26 10:35:30;;;;;;;30.10;14.43;;;;;;;4.72;94.68;99367.84;5108932;28;20065;-73
2021/11/26 10:37:59;;;;;;;31.95;14.93;;;;;;;4.61;95.87;99357.72;5101278;28;20040;-73
2021/11/26 10:40:31;;;;;;;31.60;13.88;;;;;;;4.74;95.13;99350.63;5096736;28;20048;-74
2021/11/26 10:42:58;;;;;;;36.72;14.52;;;;;;;4.83;93.93;99338.44;5109163;27;20040;-75
2021/11/26 10:45:51;;;;;;;32.13;12.27;;;;;;;4.91;93.67;99327.97;5108837;28;20054;-74
2021/11/26 10:51:31;;;;;;;29.30;12.75;;;;;;;4.89;91.75;99324.59;5097937;28;20550;-71
2021/11/26 10:57:22;;;;;;;24.50;10.55;;;;;;;4.96;88.87;99302.97;5102468;27;20164;-74
2021/11/26 10:59:50;;;;;;;24.45;10.20;;;;;;;4.85;89.66;99289.44;5109101;27;20207;-73
2021/11/26 11:02:25;;;;;;;25.20;10.93;;;;;;;5.01;89.57;99274.53;5112740;27;20040;-73
2021/11/26 11:04:51;;;;;;;;;;;;;;;5.11;87.07;99275.22;5119927;27;20107;-74
2021/11/26 11:07:18;;;;;;;30.45;10.13;;;;;;;5.12;86.71;99258.88;5116798;27;19982;-74
2021/11/26 11:09:48;;;;;;;31.88;9.43;;;;;;;5.14;86.26;99257.94;5105069;27;20047;-74
2021/11/26 11:12:16;;;;;;;26.30;9.07;;;;;;;5.22;84.60;99244.91;5111122;27;20047;-74
2021/11/26 11:14:56;;;;;;;21.05;9.18;;;;;;;5.16;85.98;99236.44;5100865;27;20048;-74
2021/11/26 11:17:24;;;;;;;22.98;7.95;;;;;;;5.25;85.60;99233.66;5107192;27;20054;-74
2021/11/26 11:19:52;;;;;;;24.60;9.63;;;;;;;5.31;85.06;99236.09;5111947;27;20067;-74
2021/11/26 11:22:18;;;;;;;26.15;9.82;;;;;;;5.36;84.46;99225.69;5109686;27;20043;-74
2021/11/26 11:24:45;;;;;;;20.92;8.10;;;;;;;5.34;84.96;99217.16;5103864;27;20501;-74